This is the latest recevied weather packets stored in our database for station/object DK9XR-14. If no packets are shown the sender has not sent any weather packets the latest 10 day(s).
| Time | Temp. | Humidity | Pressure | Rain* | Wind** | Luminosity | Snow |
|---|---|---|---|---|---|---|---|
| 1778086806 | 10.56° C | 87% | 1008.9 hPa | 0 mm | - | - | - |
| 1778086503 | 10.56° C | 87% | 1008.9 hPa | 0 mm | - | - | - |
| 1778086204 | 10.56° C | 87% | 1009 hPa | 0 mm | - | - | - |
| 1778085904 | 10.56° C | 88% | 1009.1 hPa | 0 mm | - | - | - |
| 1778085604 | 10.56° C | 88% | 1009.1 hPa | 0 mm | - | - | - |
| 1778085304 | 10.56° C | 87% | 1009 hPa | 1.02 mm | - | - | - |
| 1778085004 | 10.56° C | 88% | 1009 hPa | 1.78 mm | - | - | - |
| 1778084703 | 10.56° C | 87% | 1008.8 hPa | 1.78 mm | - | - | - |
| 1778084404 | 10.56° C | 88% | 1008.8 hPa | 1.78 mm | - | - | - |
| 1778084105 | 11.11° C | 87% | 1008.7 hPa | 1.78 mm | - | - | - |
| 1778083803 | 11.11° C | 88% | 1008.7 hPa | 1.78 mm | - | - | - |
| 1778083505 | 11.11° C | 88% | 1008.5 hPa | 1.78 mm | - | - | - |
| 1778083205 | 11.11° C | 89% | 1008.3 hPa | 1.78 mm | - | - | - |
| 1778082904 | 11.11° C | 89% | 1008.5 hPa | 1.78 mm | - | - | - |
| 1778082605 | 11.67° C | 88% | 1008.2 hPa | 1.78 mm | - | - | - |
| 1778082305 | 11.67° C | 87% | 1008.3 hPa | 1.78 mm | - | - | - |
| 1778082005 | 12.22° C | 85% | 1008.3 hPa | 1.78 mm | - | - | - |
| 1778081703 | 13.33° C | 79% | 1008.2 hPa | 0.76 mm | - | - | - |
| 1778081404 | 15° C | 66% | 1007.9 hPa | 0 mm | - | - | - |
| 1778081104 | 17.22° C | 57% | 1007.3 hPa | 0 mm | - | - | - |
| 1778080804 | 18.33° C | 54% | 1006.8 hPa | 0 mm | - | - | - |
| 1778080503 | 18.33° C | 51% | 1006.5 hPa | 0 mm | - | - | - |
| 1778080205 | 18.89° C | 50% | 1006.2 hPa | 0 mm | - | - | - |
| 1778079903 | 19.44° C | 50% | 1006.1 hPa | 0 mm | - | - | - |
| 1778079604 | 19.44° C | 50% | 1006.2 hPa | 0 mm | - | - | - |
* Rain latest hour (hover to see other rain measurements)
** Current wind speed in m/s (hover to see current wind gust speed)